<?xml version="1.0" encoding="UTF-8" standalone="no" ?>
<gpx xmlns="http://www.topografix.com/GPX/1/1" xmlns:xsi="http://www.w3.org/2001/XMLSchema-instance" xsi:schemaLocation="http://www.topografix.com/GPX/1/1 http://www.topografix.com/GPX/1/1/gpx.xsd" version="1.1" creator="VisuGPX - https://www.visugpx.com">
  <metadata>
    <name>Ambrevetta en A/R depuis les Confins (Aravis)</name>
    <desc><![CDATA[Au départ du Parking des Confins.
.
photos là: [url]https://goo.gl/photos/uMmzkteemiyHg7Tk9[/url]
celles de kikou: [url]https://get.google.com/u/0/albumarchive/107855777902247453235/album/AF1QipOG_gmt-egUw0UX75uFrbNsYk1X5yp1zb0Grh97[/url]]]></desc>
  </metadata>
  <wpt lat="45.92661" lon="6.52611">
    <ele>2503.379883</ele>
    <name><![CDATA[001]]></name>
    <desc><![CDATA[16-JUN-12]]></desc>
    <cmt><![CDATA[16-JUN-12]]></cmt>
  </wpt>
  <trk>
    <name><![CDATA[1]]></name>
    <trkseg>
      <trkpt lat="45.9227" lon="6.48384">
        <ele>1443.556885</ele>
        <time>2012-06-16T10:08:34Z</time>
      </trkpt>
      <trkpt lat="45.92143" lon="6.48513">
        <ele>1463.263916</ele>
        <time>2012-06-16T10:11:50Z</time>
      </trkpt>
      <trkpt lat="45.92146" lon="6.48558">
        <ele>1469.993164</ele>
        <time>2012-06-16T10:13:16Z</time>
      </trkpt>
      <trkpt lat="45.92118" lon="6.4866">
        <ele>1469.512695</ele>
        <time>2012-06-16T10:14:31Z</time>
      </trkpt>
      <trkpt lat="45.92154" lon="6.48719">
        <ele>1465.186523</ele>
        <time>2012-06-16T10:15:15Z</time>
      </trkpt>
      <trkpt lat="45.92179" lon="6.48827">
        <ele>1457.976807</ele>
        <time>2012-06-16T10:16:44Z</time>
      </trkpt>
      <trkpt lat="45.92161" lon="6.48883">
        <ele>1453.650879</ele>
        <time>2012-06-16T10:17:21Z</time>
      </trkpt>
      <trkpt lat="45.92232" lon="6.48964">
        <ele>1462.783203</ele>
        <time>2012-06-16T10:18:48Z</time>
      </trkpt>
      <trkpt lat="45.92296" lon="6.49071">
        <ele>1476.722412</ele>
        <time>2012-06-16T10:21:00Z</time>
      </trkpt>
      <trkpt lat="45.92391" lon="6.49155">
        <ele>1491.622803</ele>
        <time>2012-06-16T10:23:21Z</time>
      </trkpt>
      <trkpt lat="45.92447" lon="6.49184">
        <ele>1500.274902</ele>
        <time>2012-06-16T10:24:42Z</time>
      </trkpt>
      <trkpt lat="45.92483" lon="6.49181">
        <ele>1503.639404</ele>
        <time>2012-06-16T10:25:30Z</time>
      </trkpt>
      <trkpt lat="45.92543" lon="6.49221">
        <ele>1494.987305</ele>
        <time>2012-06-16T10:26:32Z</time>
      </trkpt>
      <trkpt lat="45.92613" lon="6.49233">
        <ele>1491.14209</ele>
        <time>2012-06-16T10:27:37Z</time>
      </trkpt>
      <trkpt lat="45.927" lon="6.49307">
        <ele>1487.296875</ele>
        <time>2012-06-16T10:29:07Z</time>
      </trkpt>
      <trkpt lat="45.92765" lon="6.49479">
        <ele>1498.351807</ele>
        <time>2012-06-16T10:31:59Z</time>
      </trkpt>
      <trkpt lat="45.9275" lon="6.49493">
        <ele>1496.429443</ele>
        <time>2012-06-16T10:32:42Z</time>
      </trkpt>
      <trkpt lat="45.92688" lon="6.49458">
        <ele>1498.83252</ele>
        <time>2012-06-16T10:33:49Z</time>
      </trkpt>
      <trkpt lat="45.92658" lon="6.4949">
        <ele>1507.484619</ele>
        <time>2012-06-16T10:34:29Z</time>
      </trkpt>
      <trkpt lat="45.92654" lon="6.49576">
        <ele>1511.329834</ele>
        <time>2012-06-16T10:35:33Z</time>
      </trkpt>
      <trkpt lat="45.92626" lon="6.49684">
        <ele>1513.73291</ele>
        <time>2012-06-16T10:37:17Z</time>
      </trkpt>
      <trkpt lat="45.92661" lon="6.49769">
        <ele>1524.307617</ele>
        <time>2012-06-16T10:38:53Z</time>
      </trkpt>
      <trkpt lat="45.92684" lon="6.49909">
        <ele>1539.208008</ele>
        <time>2012-06-16T10:41:14Z</time>
      </trkpt>
      <trkpt lat="45.92682" lon="6.50035">
        <ele>1558.434326</ele>
        <time>2012-06-16T10:43:44Z</time>
      </trkpt>
      <trkpt lat="45.92698" lon="6.5006">
        <ele>1567.086426</ele>
        <time>2012-06-16T10:44:28Z</time>
      </trkpt>
      <trkpt lat="45.92703" lon="6.50105">
        <ele>1580.544922</ele>
        <time>2012-06-16T10:46:40Z</time>
      </trkpt>
      <trkpt lat="45.92726" lon="6.501">
        <ele>1582.947998</ele>
        <time>2012-06-16T10:47:10Z</time>
      </trkpt>
      <trkpt lat="45.92813" lon="6.50237">
        <ele>1601.693848</ele>
        <time>2012-06-16T10:49:59Z</time>
      </trkpt>
      <trkpt lat="45.92824" lon="6.50294">
        <ele>1613.229736</ele>
        <time>2012-06-16T10:51:13Z</time>
      </trkpt>
      <trkpt lat="45.92842" lon="6.50294">
        <ele>1616.594238</ele>
        <time>2012-06-16T10:51:39Z</time>
      </trkpt>
      <trkpt lat="45.92853" lon="6.50329">
        <ele>1624.765381</ele>
        <time>2012-06-16T10:52:29Z</time>
      </trkpt>
      <trkpt lat="45.92865" lon="6.50331">
        <ele>1628.61084</ele>
        <time>2012-06-16T10:52:46Z</time>
      </trkpt>
      <trkpt lat="45.92893" lon="6.50394">
        <ele>1639.185059</ele>
        <time>2012-06-16T10:54:12Z</time>
      </trkpt>
      <trkpt lat="45.92838" lon="6.50436">
        <ele>1656.008057</ele>
        <time>2012-06-16T10:56:05Z</time>
      </trkpt>
      <trkpt lat="45.92836" lon="6.50463">
        <ele>1664.179443</ele>
        <time>2012-06-16T10:56:41Z</time>
      </trkpt>
      <trkpt lat="45.92865" lon="6.50492">
        <ele>1673.312012</ele>
        <time>2012-06-16T10:57:36Z</time>
      </trkpt>
      <trkpt lat="45.92912" lon="6.50503">
        <ele>1679.079834</ele>
        <time>2012-06-16T11:02:04Z</time>
      </trkpt>
      <trkpt lat="45.92933" lon="6.50535">
        <ele>1678.118652</ele>
        <time>2012-06-16T11:02:38Z</time>
      </trkpt>
      <trkpt lat="45.92947" lon="6.50597">
        <ele>1670.908691</ele>
        <time>2012-06-16T11:03:20Z</time>
      </trkpt>
      <trkpt lat="45.93017" lon="6.50674">
        <ele>1678.118652</ele>
        <time>2012-06-16T11:04:56Z</time>
      </trkpt>
      <trkpt lat="45.93037" lon="6.50736">
        <ele>1688.693115</ele>
        <time>2012-06-16T11:06:07Z</time>
      </trkpt>
      <trkpt lat="45.93078" lon="6.508">
        <ele>1695.422363</ele>
        <time>2012-06-16T11:07:17Z</time>
      </trkpt>
      <trkpt lat="45.93143" lon="6.51012">
        <ele>1744.930176</ele>
        <time>2012-06-16T11:12:56Z</time>
      </trkpt>
      <trkpt lat="45.93111" lon="6.51002">
        <ele>1752.620605</ele>
        <time>2012-06-16T11:13:54Z</time>
      </trkpt>
      <trkpt lat="45.93144" lon="6.51079">
        <ele>1766.559814</ele>
        <time>2012-06-16T11:15:29Z</time>
      </trkpt>
      <trkpt lat="45.93136" lon="6.51098">
        <ele>1769.443848</ele>
        <time>2012-06-16T11:15:57Z</time>
      </trkpt>
      <trkpt lat="45.93036" lon="6.51079">
        <ele>1790.112305</ele>
        <time>2012-06-16T11:18:51Z</time>
      </trkpt>
      <trkpt lat="45.93008" lon="6.51127">
        <ele>1798.283203</ele>
        <time>2012-06-16T11:19:53Z</time>
      </trkpt>
      <trkpt lat="45.92974" lon="6.51114">
        <ele>1807.896729</ele>
        <time>2012-06-16T11:21:27Z</time>
      </trkpt>
      <trkpt lat="45.92985" lon="6.512">
        <ele>1820.874512</ele>
        <time>2012-06-16T11:23:04Z</time>
      </trkpt>
      <trkpt lat="45.92976" lon="6.51196">
        <ele>1823.758301</ele>
        <time>2012-06-16T11:23:22Z</time>
      </trkpt>
      <trkpt lat="45.9292" lon="6.51324">
        <ele>1852.5979</ele>
        <time>2012-06-16T11:26:59Z</time>
      </trkpt>
      <trkpt lat="45.92909" lon="6.51324">
        <ele>1856.443115</ele>
        <time>2012-06-16T11:27:21Z</time>
      </trkpt>
      <trkpt lat="45.92896" lon="6.51382">
        <ele>1871.343506</ele>
        <time>2012-06-16T11:29:01Z</time>
      </trkpt>
      <trkpt lat="45.92886" lon="6.51385">
        <ele>1874.227539</ele>
        <time>2012-06-16T11:29:20Z</time>
      </trkpt>
      <trkpt lat="45.92885" lon="6.51419">
        <ele>1884.321533</ele>
        <time>2012-06-16T11:30:13Z</time>
      </trkpt>
      <trkpt lat="45.92826" lon="6.51501">
        <ele>1920.851562</ele>
        <time>2012-06-16T11:34:21Z</time>
      </trkpt>
      <trkpt lat="45.92845" lon="6.51527">
        <ele>1930.945312</ele>
        <time>2012-06-16T11:35:21Z</time>
      </trkpt>
      <trkpt lat="45.92885" lon="6.51677">
        <ele>1962.668701</ele>
        <time>2012-06-16T11:39:03Z</time>
      </trkpt>
      <trkpt lat="45.92856" lon="6.51674">
        <ele>1973.723877</ele>
        <time>2012-06-16T11:39:51Z</time>
      </trkpt>
      <trkpt lat="45.92797" lon="6.51603">
        <ele>1984.779297</ele>
        <time>2012-06-16T11:41:43Z</time>
      </trkpt>
      <trkpt lat="45.92796" lon="6.51641">
        <ele>1993.430908</ele>
        <time>2012-06-16T11:42:58Z</time>
      </trkpt>
      <trkpt lat="45.92724" lon="6.51705">
        <ele>2007.370117</ele>
        <time>2012-06-16T11:50:54Z</time>
      </trkpt>
      <trkpt lat="45.92735" lon="6.51724">
        <ele>2017.463867</ele>
        <time>2012-06-16T11:51:33Z</time>
      </trkpt>
      <trkpt lat="45.92727" lon="6.51747">
        <ele>2024.673828</ele>
        <time>2012-06-16T11:52:29Z</time>
      </trkpt>
      <trkpt lat="45.92739" lon="6.51777">
        <ele>2030.922607</ele>
        <time>2012-06-16T11:53:20Z</time>
      </trkpt>
      <trkpt lat="45.92731" lon="6.51779">
        <ele>2037.651611</ele>
        <time>2012-06-16T11:53:54Z</time>
      </trkpt>
      <trkpt lat="45.92752" lon="6.51822">
        <ele>2050.629395</ele>
        <time>2012-06-16T11:55:12Z</time>
      </trkpt>
      <trkpt lat="45.92724" lon="6.51811">
        <ele>2058.800537</ele>
        <time>2012-06-16T11:56:19Z</time>
      </trkpt>
      <trkpt lat="45.92721" lon="6.51841">
        <ele>2071.77832</ele>
        <time>2012-06-16T11:57:22Z</time>
      </trkpt>
      <trkpt lat="45.92613" lon="6.5176">
        <ele>2091.004639</ele>
        <time>2012-06-16T12:00:36Z</time>
      </trkpt>
      <trkpt lat="45.92595" lon="6.51776">
        <ele>2104.943848</ele>
        <time>2012-06-16T12:02:11Z</time>
      </trkpt>
      <trkpt lat="45.9254" lon="6.51755">
        <ele>2117.440918</ele>
        <time>2012-06-16T12:03:57Z</time>
      </trkpt>
      <trkpt lat="45.92531" lon="6.51767">
        <ele>2117.921631</ele>
        <time>2012-06-16T12:04:22Z</time>
      </trkpt>
      <trkpt lat="45.92511" lon="6.51753">
        <ele>2116.960449</ele>
        <time>2012-06-16T12:05:01Z</time>
      </trkpt>
      <trkpt lat="45.92484" lon="6.51771">
        <ele>2128.015625</ele>
        <time>2012-06-16T12:06:03Z</time>
      </trkpt>
      <trkpt lat="45.92482" lon="6.51761">
        <ele>2132.822021</ele>
        <time>2012-06-16T12:06:40Z</time>
      </trkpt>
      <trkpt lat="45.92471" lon="6.51866">
        <ele>2143.877441</ele>
        <time>2012-06-16T12:10:31Z</time>
      </trkpt>
      <trkpt lat="45.92483" lon="6.51907">
        <ele>2154.45166</ele>
        <time>2012-06-16T12:11:30Z</time>
      </trkpt>
      <trkpt lat="45.92494" lon="6.51909">
        <ele>2158.777832</ele>
        <time>2012-06-16T12:11:57Z</time>
      </trkpt>
      <trkpt lat="45.92484" lon="6.51982">
        <ele>2176.562256</ele>
        <time>2012-06-16T12:13:26Z</time>
      </trkpt>
      <trkpt lat="45.92441" lon="6.52006">
        <ele>2193.385254</ele>
        <time>2012-06-16T12:14:54Z</time>
      </trkpt>
      <trkpt lat="45.92448" lon="6.5197">
        <ele>2196.749756</ele>
        <time>2012-06-16T12:19:25Z</time>
      </trkpt>
      <trkpt lat="45.92441" lon="6.52006">
        <ele>2196.749756</ele>
        <time>2012-06-16T13:35:11Z</time>
      </trkpt>
      <trkpt lat="45.9239" lon="6.52078">
        <ele>2201.556396</ele>
        <time>2012-06-16T13:36:31Z</time>
      </trkpt>
      <trkpt lat="45.92381" lon="6.52128">
        <ele>2206.84375</ele>
        <time>2012-06-16T13:37:27Z</time>
      </trkpt>
      <trkpt lat="45.92358" lon="6.52135">
        <ele>2215.014893</ele>
        <time>2012-06-16T13:38:10Z</time>
      </trkpt>
      <trkpt lat="45.92346" lon="6.52158">
        <ele>2225.589355</ele>
        <time>2012-06-16T13:38:58Z</time>
      </trkpt>
      <trkpt lat="45.92356" lon="6.5225">
        <ele>2243.373779</ele>
        <time>2012-06-16T13:40:49Z</time>
      </trkpt>
      <trkpt lat="45.92324" lon="6.52348">
        <ele>2278.461914</ele>
        <time>2012-06-16T13:43:54Z</time>
      </trkpt>
      <trkpt lat="45.92337" lon="6.52375">
        <ele>2288.555908</ele>
        <time>2012-06-16T13:44:52Z</time>
      </trkpt>
      <trkpt lat="45.92345" lon="6.52465">
        <ele>2308.262695</ele>
        <time>2012-06-16T13:46:43Z</time>
      </trkpt>
      <trkpt lat="45.9233" lon="6.52488">
        <ele>2314.030518</ele>
        <time>2012-06-16T13:48:10Z</time>
      </trkpt>
      <trkpt lat="45.92329" lon="6.52624">
        <ele>2337.583008</ele>
        <time>2012-06-16T13:50:54Z</time>
      </trkpt>
      <trkpt lat="45.92305" lon="6.52706">
        <ele>2354.886719</ele>
        <time>2012-06-16T13:52:46Z</time>
      </trkpt>
      <trkpt lat="45.92285" lon="6.52732">
        <ele>2365.941895</ele>
        <time>2012-06-16T13:53:41Z</time>
      </trkpt>
      <trkpt lat="45.92248" lon="6.52738">
        <ele>2380.361816</ele>
        <time>2012-06-16T13:55:09Z</time>
      </trkpt>
      <trkpt lat="45.92257" lon="6.5276">
        <ele>2376.516357</ele>
        <time>2012-06-16T13:55:47Z</time>
      </trkpt>
      <trkpt lat="45.92247" lon="6.52768">
        <ele>2383.726318</ele>
        <time>2012-06-16T13:56:21Z</time>
      </trkpt>
      <trkpt lat="45.92269" lon="6.5278">
        <ele>2378.438965</ele>
        <time>2012-06-16T14:00:24Z</time>
      </trkpt>
      <trkpt lat="45.92321" lon="6.52866">
        <ele>2404.394531</ele>
        <time>2012-06-16T14:02:39Z</time>
      </trkpt>
      <trkpt lat="45.92319" lon="6.52883">
        <ele>2411.604492</ele>
        <time>2012-06-16T14:03:02Z</time>
      </trkpt>
      <trkpt lat="45.92347" lon="6.52921">
        <ele>2420.737061</ele>
        <time>2012-06-16T14:04:01Z</time>
      </trkpt>
      <trkpt lat="45.92346" lon="6.52965">
        <ele>2430.831055</ele>
        <time>2012-06-16T14:05:07Z</time>
      </trkpt>
      <trkpt lat="45.92378" lon="6.53003">
        <ele>2439.001953</ele>
        <time>2012-06-16T14:06:19Z</time>
      </trkpt>
      <trkpt lat="45.92377" lon="6.5302">
        <ele>2445.731445</ele>
        <time>2012-06-16T14:06:45Z</time>
      </trkpt>
      <trkpt lat="45.92411" lon="6.53065">
        <ele>2451.018555</ele>
        <time>2012-06-16T14:08:04Z</time>
      </trkpt>
      <trkpt lat="45.92439" lon="6.53078">
        <ele>2447.17334</ele>
        <time>2012-06-16T14:09:39Z</time>
      </trkpt>
      <trkpt lat="45.92435" lon="6.53091">
        <ele>2454.86377</ele>
        <time>2012-06-16T14:10:03Z</time>
      </trkpt>
      <trkpt lat="45.92475" lon="6.53092">
        <ele>2465.438477</ele>
        <time>2012-06-16T14:12:01Z</time>
      </trkpt>
      <trkpt lat="45.92515" lon="6.53021">
        <ele>2452.941162</ele>
        <time>2012-06-16T14:14:56Z</time>
      </trkpt>
      <trkpt lat="45.92554" lon="6.52869">
        <ele>2468.322266</ele>
        <time>2012-06-16T14:16:52Z</time>
      </trkpt>
      <trkpt lat="45.92662" lon="6.52607">
        <ele>2500.045898</ele>
        <time>2012-06-16T14:23:48Z</time>
      </trkpt>
      <trkpt lat="45.92558" lon="6.52858">
        <ele>2469.283691</ele>
        <time>2012-06-16T14:39:38Z</time>
      </trkpt>
      <trkpt lat="45.92524" lon="6.52993">
        <ele>2461.112549</ele>
        <time>2012-06-16T14:41:37Z</time>
      </trkpt>
      <trkpt lat="45.92486" lon="6.53054">
        <ele>2450.537842</ele>
        <time>2012-06-16T14:42:42Z</time>
      </trkpt>
      <trkpt lat="45.92418" lon="6.53057">
        <ele>2446.212158</ele>
        <time>2012-06-16T14:44:01Z</time>
      </trkpt>
      <trkpt lat="45.92289" lon="6.52818">
        <ele>2389.494141</ele>
        <time>2012-06-16T14:49:05Z</time>
      </trkpt>
      <trkpt lat="45.92302" lon="6.52789">
        <ele>2385.648926</ele>
        <time>2012-06-16T14:50:18Z</time>
      </trkpt>
      <trkpt lat="45.92275" lon="6.52733">
        <ele>2365.941895</ele>
        <time>2012-06-16T14:51:10Z</time>
      </trkpt>
      <trkpt lat="45.92284" lon="6.52727">
        <ele>2359.693115</ele>
        <time>2012-06-16T14:51:30Z</time>
      </trkpt>
      <trkpt lat="45.92282" lon="6.52702">
        <ele>2352.002686</ele>
        <time>2012-06-16T14:51:47Z</time>
      </trkpt>
      <trkpt lat="45.92324" lon="6.52642">
        <ele>2341.428223</ele>
        <time>2012-06-16T14:52:37Z</time>
      </trkpt>
      <trkpt lat="45.92338" lon="6.524">
        <ele>2299.61084</ele>
        <time>2012-06-16T14:55:21Z</time>
      </trkpt>
      <trkpt lat="45.92326" lon="6.52335">
        <ele>2279.423096</ele>
        <time>2012-06-16T14:56:24Z</time>
      </trkpt>
      <trkpt lat="45.92349" lon="6.52287">
        <ele>2257.312988</ele>
        <time>2012-06-16T14:57:12Z</time>
      </trkpt>
      <trkpt lat="45.92349" lon="6.52158">
        <ele>2229.43457</ele>
        <time>2012-06-16T14:58:58Z</time>
      </trkpt>
      <trkpt lat="45.92445" lon="6.51942">
        <ele>2187.617188</ele>
        <time>2012-06-16T15:02:18Z</time>
      </trkpt>
      <trkpt lat="45.92477" lon="6.51944">
        <ele>2177.042969</ele>
        <time>2012-06-16T15:03:02Z</time>
      </trkpt>
      <trkpt lat="45.92476" lon="6.51843">
        <ele>2147.241943</ele>
        <time>2012-06-16T15:04:14Z</time>
      </trkpt>
      <trkpt lat="45.92506" lon="6.51751">
        <ele>2120.805664</ele>
        <time>2012-06-16T15:06:02Z</time>
      </trkpt>
      <trkpt lat="45.92533" lon="6.51756">
        <ele>2120.805664</ele>
        <time>2012-06-16T15:06:56Z</time>
      </trkpt>
      <trkpt lat="45.92546" lon="6.51735">
        <ele>2117.440918</ele>
        <time>2012-06-16T15:35:45Z</time>
      </trkpt>
      <trkpt lat="45.92517" lon="6.5167">
        <ele>2117.440918</ele>
        <time>2012-06-16T15:44:18Z</time>
      </trkpt>
      <trkpt lat="45.9248" lon="6.51643">
        <ele>2112.634521</ele>
        <time>2012-06-16T15:45:04Z</time>
      </trkpt>
      <trkpt lat="45.92476" lon="6.51598">
        <ele>2114.076416</ele>
        <time>2012-06-16T15:46:08Z</time>
      </trkpt>
      <trkpt lat="45.925" lon="6.5156">
        <ele>2101.098633</ele>
        <time>2012-06-16T15:47:14Z</time>
      </trkpt>
      <trkpt lat="45.92636" lon="6.51541">
        <ele>2007.85083</ele>
        <time>2012-06-16T15:52:44Z</time>
      </trkpt>
      <trkpt lat="45.92669" lon="6.51461">
        <ele>1969.878662</ele>
        <time>2012-06-16T15:54:26Z</time>
      </trkpt>
      <trkpt lat="45.92735" lon="6.51383">
        <ele>1929.503174</ele>
        <time>2012-06-16T15:56:24Z</time>
      </trkpt>
      <trkpt lat="45.92738" lon="6.5136">
        <ele>1924.216064</ele>
        <time>2012-06-16T15:56:35Z</time>
      </trkpt>
      <trkpt lat="45.92774" lon="6.51349">
        <ele>1903.547852</ele>
        <time>2012-06-16T15:57:36Z</time>
      </trkpt>
      <trkpt lat="45.92773" lon="6.51288">
        <ele>1888.166748</ele>
        <time>2012-06-16T16:00:16Z</time>
      </trkpt>
      <trkpt lat="45.92809" lon="6.51192">
        <ele>1856.443115</ele>
        <time>2012-06-16T16:02:36Z</time>
      </trkpt>
      <trkpt lat="45.92802" lon="6.51112">
        <ele>1833.852051</ele>
        <time>2012-06-16T16:03:51Z</time>
      </trkpt>
      <trkpt lat="45.92846" lon="6.51046">
        <ele>1831.929443</ele>
        <time>2012-06-16T16:05:05Z</time>
      </trkpt>
      <trkpt lat="45.92845" lon="6.51025">
        <ele>1814.625732</ele>
        <time>2012-06-16T16:05:16Z</time>
      </trkpt>
      <trkpt lat="45.92865" lon="6.51006">
        <ele>1815.587158</ele>
        <time>2012-06-16T16:06:15Z</time>
      </trkpt>
      <trkpt lat="45.92913" lon="6.5101">
        <ele>1812.222412</ele>
        <time>2012-06-16T16:07:04Z</time>
      </trkpt>
      <trkpt lat="45.9294" lon="6.50951">
        <ele>1803.570557</ele>
        <time>2012-06-16T16:08:22Z</time>
      </trkpt>
      <trkpt lat="45.92928" lon="6.50949">
        <ele>1804.051514</ele>
        <time>2012-06-16T16:09:18Z</time>
      </trkpt>
      <trkpt lat="45.92951" lon="6.50965">
        <ele>1806.45459</ele>
        <time>2012-06-16T16:10:24Z</time>
      </trkpt>
      <trkpt lat="45.92952" lon="6.50999">
        <ele>1807.416016</ele>
        <time>2012-06-16T16:11:06Z</time>
      </trkpt>
      <trkpt lat="45.92951" lon="6.50969">
        <ele>1806.935303</ele>
        <time>2012-06-16T16:11:51Z</time>
      </trkpt>
      <trkpt lat="45.92938" lon="6.50954">
        <ele>1811.26123</ele>
        <time>2012-06-16T16:12:11Z</time>
      </trkpt>
      <trkpt lat="45.92922" lon="6.5099">
        <ele>1807.416016</ele>
        <time>2012-06-16T16:12:45Z</time>
      </trkpt>
      <trkpt lat="45.92884" lon="6.50975">
        <ele>1808.85791</ele>
        <time>2012-06-16T16:13:31Z</time>
      </trkpt>
      <trkpt lat="45.92872" lon="6.50923">
        <ele>1805.012695</ele>
        <time>2012-06-16T16:14:31Z</time>
      </trkpt>
      <trkpt lat="45.92878" lon="6.50864">
        <ele>1807.896729</ele>
        <time>2012-06-16T16:15:23Z</time>
      </trkpt>
      <trkpt lat="45.92858" lon="6.50838">
        <ele>1801.647949</ele>
        <time>2012-06-16T16:15:52Z</time>
      </trkpt>
      <trkpt lat="45.92828" lon="6.50745">
        <ele>1803.089844</ele>
        <time>2012-06-16T16:17:31Z</time>
      </trkpt>
      <trkpt lat="45.92801" lon="6.50726">
        <ele>1788.67041</ele>
        <time>2012-06-16T16:18:36Z</time>
      </trkpt>
      <trkpt lat="45.92784" lon="6.50676">
        <ele>1773.289307</ele>
        <time>2012-06-16T16:21:12Z</time>
      </trkpt>
      <trkpt lat="45.92754" lon="6.50655">
        <ele>1755.504639</ele>
        <time>2012-06-16T16:22:22Z</time>
      </trkpt>
      <trkpt lat="45.92768" lon="6.50565">
        <ele>1722.339111</ele>
        <time>2012-06-16T16:24:27Z</time>
      </trkpt>
      <trkpt lat="45.92802" lon="6.50494">
        <ele>1691.096191</ele>
        <time>2012-06-16T16:26:22Z</time>
      </trkpt>
      <trkpt lat="45.928" lon="6.50477">
        <ele>1684.367188</ele>
        <time>2012-06-16T16:26:47Z</time>
      </trkpt>
      <trkpt lat="45.92857" lon="6.50419">
        <ele>1651.682373</ele>
        <time>2012-06-16T16:28:50Z</time>
      </trkpt>
      <trkpt lat="45.9281" lon="6.50237">
        <ele>1602.655029</ele>
        <time>2012-06-16T16:33:54Z</time>
      </trkpt>
      <trkpt lat="45.92735" lon="6.50113">
        <ele>1584.390137</ele>
        <time>2012-06-16T16:35:55Z</time>
      </trkpt>
      <trkpt lat="45.92693" lon="6.50094">
        <ele>1574.296143</ele>
        <time>2012-06-16T16:36:42Z</time>
      </trkpt>
      <trkpt lat="45.927" lon="6.50056">
        <ele>1572.373535</ele>
        <time>2012-06-16T16:37:18Z</time>
      </trkpt>
      <trkpt lat="45.92679" lon="6.49932">
        <ele>1550.263428</ele>
        <time>2012-06-16T16:39:06Z</time>
      </trkpt>
      <trkpt lat="45.92687" lon="6.49841">
        <ele>1542.572754</ele>
        <time>2012-06-16T16:40:16Z</time>
      </trkpt>
      <trkpt lat="45.92671" lon="6.49793">
        <ele>1533.440186</ele>
        <time>2012-06-16T16:40:53Z</time>
      </trkpt>
      <trkpt lat="45.92629" lon="6.49738">
        <ele>1508.926514</ele>
        <time>2012-06-16T16:41:39Z</time>
      </trkpt>
      <trkpt lat="45.92634" lon="6.49713">
        <ele>1520.943115</ele>
        <time>2012-06-16T16:41:54Z</time>
      </trkpt>
      <trkpt lat="45.92608" lon="6.49676">
        <ele>1505.081299</ele>
        <time>2012-06-16T16:42:16Z</time>
      </trkpt>
      <trkpt lat="45.92611" lon="6.49644">
        <ele>1503.158691</ele>
        <time>2012-06-16T16:42:33Z</time>
      </trkpt>
      <trkpt lat="45.92633" lon="6.49618">
        <ele>1504.600586</ele>
        <time>2012-06-16T16:42:51Z</time>
      </trkpt>
      <trkpt lat="45.92627" lon="6.49595">
        <ele>1502.197266</ele>
        <time>2012-06-16T16:43:06Z</time>
      </trkpt>
      <trkpt lat="45.92658" lon="6.49483">
        <ele>1507.003906</ele>
        <time>2012-06-16T16:44:13Z</time>
      </trkpt>
      <trkpt lat="45.92696" lon="6.49451">
        <ele>1504.120117</ele>
        <time>2012-06-16T16:44:47Z</time>
      </trkpt>
      <trkpt lat="45.92754" lon="6.49487">
        <ele>1498.351807</ele>
        <time>2012-06-16T16:45:47Z</time>
      </trkpt>
      <trkpt lat="45.92775" lon="6.49474">
        <ele>1507.003906</ele>
        <time>2012-06-16T16:50:41Z</time>
      </trkpt>
      <trkpt lat="45.9274" lon="6.49418">
        <ele>1498.351807</ele>
        <time>2012-06-16T16:51:28Z</time>
      </trkpt>
      <trkpt lat="45.92703" lon="6.49298">
        <ele>1495.94873</ele>
        <time>2012-06-16T16:52:47Z</time>
      </trkpt>
      <trkpt lat="45.92616" lon="6.49231">
        <ele>1491.622803</ele>
        <time>2012-06-16T16:54:17Z</time>
      </trkpt>
      <trkpt lat="45.92492" lon="6.49191">
        <ele>1501.236084</ele>
        <time>2012-06-16T16:56:14Z</time>
      </trkpt>
      <trkpt lat="45.92439" lon="6.49112">
        <ele>1497.871338</ele>
        <time>2012-06-16T16:57:42Z</time>
      </trkpt>
      <trkpt lat="45.92372" lon="6.49114">
        <ele>1487.777588</ele>
        <time>2012-06-16T16:58:39Z</time>
      </trkpt>
      <trkpt lat="45.92296" lon="6.49057">
        <ele>1478.164307</ele>
        <time>2012-06-16T16:59:52Z</time>
      </trkpt>
      <trkpt lat="45.92161" lon="6.48867">
        <ele>1457.496094</ele>
        <time>2012-06-16T17:02:46Z</time>
      </trkpt>
      <trkpt lat="45.92178" lon="6.48821">
        <ele>1461.341309</ele>
        <time>2012-06-16T17:03:17Z</time>
      </trkpt>
      <trkpt lat="45.92152" lon="6.48703">
        <ele>1469.512695</ele>
        <time>2012-06-16T17:04:35Z</time>
      </trkpt>
      <trkpt lat="45.92119" lon="6.48653">
        <ele>1470.95459</ele>
        <time>2012-06-16T17:05:16Z</time>
      </trkpt>
      <trkpt lat="45.92148" lon="6.48507">
        <ele>1469.512695</ele>
        <time>2012-06-16T17:06:43Z</time>
      </trkpt>
      <trkpt lat="45.92239" lon="6.48399">
        <ele>1452.20874</ele>
        <time>2012-06-16T17:08:22Z</time>
      </trkpt>
      <trkpt lat="45.92272" lon="6.48379">
        <ele>1448.843994</ele>
        <time>2012-06-16T17:09:25Z</time>
      </trkpt>
    </trkseg>
  </trk>
</gpx>